Time;durP1;ratioP1;P1;durP2;ratioP2;P2;SDS_P1;SDS_P2;PMS_P1;PMS_P2;Temp;Humidity;BMP_temperature;BMP_pressure;BME280_temperature;BME280_humidity;BME280_pressure;Samples;Min_cycle;Max_cycle;Signal;HPM_P1;HPM_P2
2022/11/11 00:01:59;;;;;;;21.47;15.33;;;;;;;;;;5052212;28;20618;-82
2022/11/11 00:04:26;;;;;;;20.13;15.90;;;;;;;;;;5051801;28;20198;-82
2022/11/11 00:06:53;;;;;;;20.47;14.57;;;;;;;;;;5052417;28;20220;-82
2022/11/11 00:09:20;;;;;;;18.60;15.37;;;;;;;;;;5052099;28;20210;-82
2022/11/11 00:11:47;;;;;;;22.20;14.90;;;;;;;;;;5051780;28;20216;-82
2022/11/11 00:14:15;;;;;;;18.93;16.17;;;;;;;;;;5051785;28;20194;-82
2022/11/11 00:25:07;;;;;;;17.53;14.60;;;;;;;;;;5039857;28;20258;-82
2022/11/11 00:27:34;;;;;;;23.57;16.57;;;;;;;;;;5052112;28;20209;-83
2022/11/11 00:30:02;;;;;;;22.90;16.40;;;;;;;;;;5051480;28;20206;-82
2022/11/11 00:32:32;;;;;;;21.50;17.20;;;;;;;;;;5051673;28;20201;-82
2022/11/11 00:37:47;;;;;;;21.10;17.37;;;;;;;;;;5051200;28;20680;-82
2022/11/11 00:40:14;;;;;;;22.03;16.00;;;;;;;;;;5051394;28;20253;-82
2022/11/11 00:42:41;;;;;;;23.17;17.07;;;;;;;;;;5051176;28;20210;-83
2022/11/11 00:45:10;;;;;;;27.40;17.83;;;;;;;;;;5051107;28;20240;-83
2022/11/11 00:53:11;;;;;;;26.03;19.43;;;;;;;;;;5051088;28;20233;-83
2022/11/11 00:55:37;;;;;;;23.20;17.87;;;;;;;;;;5050894;28;20213;-83
2022/11/11 00:58:04;;;;;;;22.73;17.37;;;;;;;;;;5051436;28;20340;-82
2022/11/11 01:00:32;;;;;;;20.53;16.57;;;;;;;;;;5050447;28;20234;-83
2022/11/11 01:02:59;;;;;;;22.73;16.57;;;;;;;;;;5049899;28;20631;-83
2022/11/11 01:05:26;;;;;;;19.60;15.90;;;;;;;;;;5050725;28;20201;-82
2022/11/11 01:07:53;;;;;;;22.27;16.93;;;;;;;;;;5051099;28;20221;-82
2022/11/11 01:10:42;;;;;;;20.43;16.17;;;;;;;;;;5050852;28;20584;-83
2022/11/11 01:13:16;;;;;;;20.23;16.07;;;;;;;;;;5050179;28;20274;-83
2022/11/11 01:15:45;;;;;;;18.47;15.47;;;;;;;;;;5050789;28;20568;-83
2022/11/11 01:18:14;;;;;;;24.03;17.67;;;;;;;;;;5051133;28;20351;-83
2022/11/11 01:20:40;;;;;;;19.90;16.10;;;;;;;;;;5050370;28;20221;-83
2022/11/11 01:23:08;;;;;;;20.53;17.00;;;;;;;;;;5050855;28;20234;-83
2022/11/11 01:25:36;;;;;;;21.40;16.53;;;;;;;;;;5049923;28;20644;-83
2022/11/11 01:28:04;;;;;;;21.63;17.13;;;;;;;;;;5050357;28;20202;-82
2022/11/11 01:30:33;;;;;;;22.83;17.03;;;;;;;;;;5049614;28;20210;-83
2022/11/11 01:33:01;;;;;;;19.63;15.30;;;;;;;;;;5050346;28;20209;-83
2022/11/11 01:35:28;;;;;;;21.43;15.87;;;;;;;;;;5050538;28;20689;-82
2022/11/11 01:37:55;;;;;;;22.63;17.13;;;;;;;;;;5050008;28;20620;-82
2022/11/11 01:40:22;;;;;;;20.20;15.63;;;;;;;;;;5049259;28;20236;-83
2022/11/11 01:42:50;;;;;;;23.57;17.23;;;;;;;;;;5050437;28;20210;-82
2022/11/11 01:45:45;;;;;;;22.43;16.83;;;;;;;;;;5049977;28;20217;-83
2022/11/11 01:50:59;;;;;;;17.63;13.90;;;;;;;;;;5050337;28;20225;-83
2022/11/11 01:53:26;;;;;;;20.17;16.07;;;;;;;;;;5050468;28;20283;-83
2022/11/11 01:55:53;;;;;;;20.57;15.17;;;;;;;;;;5036187;28;20689;-82
2022/11/11 01:58:21;;;;;;;22.27;16.40;;;;;;;;;;5050486;28;20209;-83
2022/11/11 02:00:48;;;;;;;19.13;15.67;;;;;;;;;;5049672;28;20225;-83
2022/11/11 02:03:18;;;;;;;22.50;16.87;;;;;;;;;;5050177;28;20202;-82
2022/11/11 02:05:44;;;;;;;22.03;16.40;;;;;;;;;;5050025;28;20198;-83
2022/11/11 02:08:13;;;;;;;19.27;15.93;;;;;;;;;;5050532;28;20237;-83
2022/11/11 02:10:43;;;;;;;20.83;17.10;;;;;;;;;;5049762;28;20672;-85
2022/11/11 02:15:58;;;;;;;24.60;16.70;;;;;;;;;;5050845;28;20348;-83
2022/11/11 02:18:27;;;;;;;19.57;15.53;;;;;;;;;;5043685;28;20202;-83
2022/11/11 02:20:54;;;;;;;28.50;18.40;;;;;;;;;;5053770;28;20230;-83
2022/11/11 02:23:25;;;;;;;24.17;18.13;;;;;;;;;;5052442;28;20221;-83
2022/11/11 02:25:54;;;;;;;23.87;16.67;;;;;;;;;;5053842;28;20202;-83
2022/11/11 02:28:22;;;;;;;21.27;17.30;;;;;;;;;;5054338;28;20660;-83
2022/11/11 02:30:49;;;;;;;24.13;17.20;;;;;;;;;;5053288;28;20239;-83
2022/11/11 02:33:16;;;;;;;21.77;17.57;;;;;;;;;;5053970;28;20210;-83
2022/11/11 02:35:45;;;;;;;20.83;15.90;;;;;;;;;;5053819;28;20688;-84
2022/11/11 02:38:13;;;;;;;24.97;17.73;;;;;;;;;;5053914;28;20217;-83
2022/11/11 02:41:55;;;;;;;21.80;17.63;;;;;;;;;;5053040;28;20577;-83
2022/11/11 02:43:32;;;;;;;23.70;17.33;;;;;;;;;;5039772;28;20198;-82
2022/11/11 02:46:00;;;;;;;20.60;16.53;;;;;;;;;;5053587;28;20213;-82
2022/11/11 02:48:27;;;;;;;25.73;17.20;;;;;;;;;;5053259;28;20229;-83
2022/11/11 02:50:54;;;;;;;24.40;19.10;;;;;;;;;;5053063;28;20205;-83
2022/11/11 02:53:21;;;;;;;23.77;16.77;;;;;;;;;;5053627;28;20271;-83
2022/11/11 02:55:48;;;;;;;22.03;16.67;;;;;;;;;;5053503;28;20198;-83
2022/11/11 02:58:16;;;;;;;21.07;16.30;;;;;;;;;;5053627;28;20201;-83
2022/11/11 03:00:44;;;;;;;23.27;16.80;;;;;;;;;;5052268;28;20225;-83
2022/11/11 03:03:11;;;;;;;21.93;17.10;;;;;;;;;;5053109;28;20588;-84
2022/11/11 03:05:38;;;;;;;26.00;17.80;;;;;;;;;;5052999;28;20205;-83
2022/11/11 03:08:06;;;;;;;21.13;16.33;;;;;;;;;;5035313;28;20197;-83
2022/11/11 03:10:32;;;;;;;20.10;16.83;;;;;;;;;;5052675;28;20198;-83
2022/11/11 03:12:59;;;;;;;21.20;17.33;;;;;;;;;;5052946;28;20639;-82
2022/11/11 03:15:26;;;;;;;20.73;17.23;;;;;;;;;;5053031;28;20202;-83
2022/11/11 03:17:53;;;;;;;24.13;17.17;;;;;;;;;;5053381;28;20202;-82
2022/11/11 03:23:06;;;;;;;27.30;16.67;;;;;;;;;;5053146;28;20236;-82
2022/11/11 03:25:38;;;;;;;27.03;16.07;;;;;;;;;;5051655;28;20228;-83
2022/11/11 03:28:06;;;;;;;26.73;18.90;;;;;;;;;;5053067;28;20661;-82
2022/11/11 03:30:32;;;;;;;22.37;16.57;;;;;;;;;;5051828;28;20205;-82
2022/11/11 03:33:01;;;;;;;19.33;16.77;;;;;;;;;;5052816;28;20646;-82
2022/11/11 03:35:28;;;;;;;21.13;16.63;;;;;;;;;;5052460;28;20252;-82
2022/11/11 03:40:39;;;;;;;20.60;16.07;;;;;;;;;;5051829;28;20236;-82
2022/11/11 03:43:06;;;;;;;22.03;16.30;;;;;;;;;;5051904;28;20202;-82
2022/11/11 03:45:33;;;;;;;20.07;15.77;;;;;;;;;;5051771;28;20209;-82
2022/11/11 03:48:01;;;;;;;21.07;14.00;;;;;;;;;;5051284;28;20255;-82
2022/11/11 03:50:28;;;;;;;20.70;14.97;;;;;;;;;;5049865;28;20202;-82
2022/11/11 03:52:55;;;;;;;18.53;15.33;;;;;;;;;;5050760;28;20198;-82
2022/11/11 03:55:21;;;;;;;19.00;14.53;;;;;;;;;;5039672;28;20231;-82
2022/11/11 03:57:48;;;;;;;18.60;15.00;;;;;;;;;;5051986;28;20684;-82
2022/11/11 04:00:17;;;;;;;20.87;15.47;;;;;;;;;;5051608;28;20292;-82
2022/11/11 04:11:03;;;;;;;24.53;17.97;;;;;;;;;;5051951;28;20548;-82
2022/11/11 04:16:15;;;;;;;19.27;17.10;;;;;;;;;;5051654;28;20294;-83
2022/11/11 04:21:46;;;;;;;22.27;16.90;;;;;;;;;;5038219;28;20228;-82
2022/11/11 04:26:59;;;;;;;20.53;16.57;;;;;;;;;;5051667;28;20217;-81
2022/11/11 04:29:28;;;;;;;22.73;16.53;;;;;;;;;;5051640;28;20225;-82
2022/11/11 04:34:44;;;;;;;23.83;16.17;;;;;;;;;;5051329;28;20246;-82
2022/11/11 04:37:12;;;;;;;19.77;17.03;;;;;;;;;;5051631;28;20267;-83
2022/11/11 04:42:24;;;;;;;17.73;15.43;;;;;;;;;;5051436;28;20307;-82
2022/11/11 04:47:35;;;;;;;20.50;14.77;;;;;;;;;;5051069;28;20228;-83
2022/11/11 04:50:02;;;;;;;18.77;15.27;;;;;;;;;;5051054;28;20209;-82
2022/11/11 04:52:31;;;;;;;18.87;14.53;;;;;;;;;;5050976;28;20239;-82
2022/11/11 04:57:45;;;;;;;20.53;16.37;;;;;;;;;;5051047;28;20248;-82
2022/11/11 05:00:14;;;;;;;21.50;16.50;;;;;;;;;;5050475;28;20222;-83
2022/11/11 05:05:25;;;;;;;19.27;15.87;;;;;;;;;;5037005;28;20287;-82
2022/11/11 05:10:38;;;;;;;19.60;16.07;;;;;;;;;;5047639;28;20706;-82
2022/11/11 05:21:22;;;;;;;30.40;18.23;;;;;;;;;;5048824;28;20255;-82
2022/11/11 05:26:35;;;;;;;19.60;15.47;;;;;;;;;;5049900;28;20298;-84
2022/11/11 05:29:02;;;;;;;18.67;14.93;;;;;;;;;;5049300;28;20267;-83
2022/11/11 05:31:29;;;;;;;27.17;19.20;;;;;;;;;;5049288;28;20198;-83
2022/11/11 05:33:56;;;;;;;45.33;29.03;;;;;;;;;;5050008;28;20572;-83
2022/11/11 05:36:23;;;;;;;26.63;21.43;;;;;;;;;;5050124;28;20584;-83
2022/11/11 05:38:52;;;;;;;22.43;17.27;;;;;;;;;;5050466;28;20210;-83
2022/11/11 05:41:19;;;;;;;22.53;17.97;;;;;;;;;;5048711;28;20279;-83
2022/11/11 05:43:45;;;;;;;18.93;14.30;;;;;;;;;;5050101;28;20202;-84
2022/11/11 05:46:12;;;;;;;20.80;14.77;;;;;;;;;;5049595;28;20201;-84
2022/11/11 05:49:13;;;;;;;17.53;15.60;;;;;;;;;;5049623;28;20685;-82
2022/11/11 05:51:28;;;;;;;21.17;14.67;;;;;;;;;;5050237;28;20205;-83
2022/11/11 05:53:58;;;;;;;19.07;15.07;;;;;;;;;;5050352;28;20198;-84
2022/11/11 05:56:25;;;;;;;18.53;15.73;;;;;;;;;;5049827;28;20237;-83
2022/11/11 05:58:51;;;;;;;20.03;15.07;;;;;;;;;;5050266;28;20300;-83
2022/11/11 06:01:18;;;;;;;22.07;19.70;;;;;;;;;;5049984;28;20308;-83
2022/11/11 06:03:45;;;;;;;22.00;17.97;;;;;;;;;;5037693;28;20259;-83
2022/11/11 06:06:12;;;;;;;19.37;16.20;;;;;;;;;;5044485;28;20198;-85
2022/11/11 06:08:39;;;;;;;20.77;16.53;;;;;;;;;;5050553;28;20210;-83
2022/11/11 06:11:07;;;;;;;19.00;15.20;;;;;;;;;;5049351;28;20205;-83
2022/11/11 06:13:34;;;;;;;19.27;16.57;;;;;;;;;;5050421;28;20201;-83
2022/11/11 06:16:01;;;;;;;18.83;15.93;;;;;;;;;;5047972;28;20197;-82
2022/11/11 06:18:28;;;;;;;22.43;17.67;;;;;;;;;;5041886;28;20206;-83
2022/11/11 06:20:55;;;;;;;19.30;17.10;;;;;;;;;;5049897;28;20650;-83
2022/11/11 06:23:24;;;;;;;23.37;17.70;;;;;;;;;;5049832;28;20230;-83
2022/11/11 06:28:36;;;;;;;22.10;17.90;;;;;;;;;;5050107;28;20213;-82
2022/11/11 06:31:06;;;;;;;22.53;17.27;;;;;;;;;;5049673;28;20202;-83
2022/11/11 06:33:34;;;;;;;19.57;17.13;;;;;;;;;;5049839;28;20220;-83
2022/11/11 06:36:01;;;;;;;26.43;20.83;;;;;;;;;;5049459;28;20241;-84
2022/11/11 06:38:28;;;;;;;28.73;19.47;;;;;;;;;;5049698;28;20205;-83
2022/11/11 06:40:55;;;;;;;21.83;18.20;;;;;;;;;;5049386;28;20225;-83
2022/11/11 06:43:22;;;;;;;30.43;21.53;;;;;;;;;;5049861;28;20198;-82
2022/11/11 06:45:53;;;;;;;29.40;21.53;;;;;;;;;;5049082;28;20711;-84
2022/11/11 06:48:20;;;;;;;30.87;21.77;;;;;;;;;;5049679;28;20630;-84
2022/11/11 06:50:47;;;;;;;23.80;20.07;;;;;;;;;;5042201;28;20206;-84
2022/11/11 06:53:16;;;;;;;24.33;18.60;;;;;;;;;;5050282;28;20209;-84
2022/11/11 06:55:43;;;;;;;23.90;18.80;;;;;;;;;;5049626;28;20194;-84
2022/11/11 06:58:11;;;;;;;25.97;19.93;;;;;;;;;;5050172;28;20210;-84
2022/11/11 07:00:39;;;;;;;21.50;16.70;;;;;;;;;;5050935;28;20221;-84
2022/11/11 07:03:07;;;;;;;19.83;17.30;;;;;;;;;;5053032;28;20206;-84
2022/11/11 07:05:34;;;;;;;23.40;17.43;;;;;;;;;;5053188;28;20573;-84
2022/11/11 07:08:02;;;;;;;22.10;17.60;;;;;;;;;;5053181;28;20684;-84
2022/11/11 07:10:29;;;;;;;23.10;17.37;;;;;;;;;;5052717;28;20296;-84
2022/11/11 07:12:56;;;;;;;23.07;15.83;;;;;;;;;;5053312;28;20282;-84
2022/11/11 07:15:23;;;;;;;18.33;15.83;;;;;;;;;;5053180;28;20221;-84
2022/11/11 07:17:49;;;;;;;24.07;16.43;;;;;;;;;;5052463;28;20208;-84
2022/11/11 07:20:18;;;;;;;24.97;16.97;;;;;;;;;;5052825;28;20276;-85
2022/11/11 07:22:44;;;;;;;22.10;16.67;;;;;;;;;;5052909;28;20724;-86
2022/11/11 07:25:11;;;;;;;19.83;16.33;;;;;;;;;;5053003;28;20683;-84
2022/11/11 07:27:38;;;;;;;73.03;65.03;;;;;;;;;;5052685;28;20202;-84
2022/11/11 07:30:06;;;;;;;70.70;61.90;;;;;;;;;;5052355;28;20202;-82
2022/11/11 07:32:33;;;;;;;65.50;56.50;;;;;;;;;;5052334;28;20202;-84
2022/11/11 07:35:00;;;;;;;49.63;40.57;;;;;;;;;;5052794;28;20205;-83
2022/11/11 07:37:30;;;;;;;52.70;44.67;;;;;;;;;;5052667;28;20239;-82
2022/11/11 07:39:57;;;;;;;36.17;32.13;;;;;;;;;;5052613;28;20212;-82
2022/11/11 07:42:24;;;;;;;22.33;19.03;;;;;;;;;;5052612;28;20216;-82
2022/11/11 07:44:50;;;;;;;18.73;15.70;;;;;;;;;;5052072;28;20237;-82
2022/11/11 07:47:17;;;;;;;20.37;15.30;;;;;;;;;;5052290;28;20201;-82
2022/11/11 07:49:44;;;;;;;19.27;16.20;;;;;;;;;;5052344;28;20209;-82
2022/11/11 07:52:10;;;;;;;16.77;14.33;;;;;;;;;;5052407;28;20202;-82
2022/11/11 07:54:39;;;;;;;16.87;13.30;;;;;;;;;;5051963;28;20209;-82
2022/11/11 07:57:05;;;;;;;24.87;18.07;;;;;;;;;;5052056;28;20685;-83
2022/11/11 07:59:32;;;;;;;31.27;23.30;;;;;;;;;;5051795;28;20209;-83
2022/11/11 08:01:59;;;;;;;27.37;20.93;;;;;;;;;;5052158;28;20233;-82
2022/11/11 08:04:27;;;;;;;24.53;18.37;;;;;;;;;;5051596;28;20209;-82
2022/11/11 08:06:54;;;;;;;21.73;18.17;;;;;;;;;;5052375;28;20209;-81
2022/11/11 08:09:21;;;;;;;23.17;17.30;;;;;;;;;;5052061;28;20205;-82
2022/11/11 08:14:33;;;;;;;17.50;13.23;;;;;;;;;;5051542;28;20329;-81
2022/11/11 08:17:00;;;;;;;15.30;12.63;;;;;;;;;;5051770;28;20430;-82
2022/11/11 08:19:27;;;;;;;16.87;13.23;;;;;;;;;;5051598;28;20209;-84
2022/11/11 08:21:54;;;;;;;16.83;12.37;;;;;;;;;;5051737;28;20237;-84
2022/11/11 08:24:20;;;;;;;18.50;14.73;;;;;;;;;;5051787;28;20237;-81
2022/11/11 08:26:49;;;;;;;16.43;13.67;;;;;;;;;;5051611;28;20216;-84
2022/11/11 08:29:16;;;;;;;15.23;13.63;;;;;;;;;;5051804;28;20635;-84
2022/11/11 08:31:43;;;;;;;15.57;12.97;;;;;;;;;;5051658;28;20201;-83
2022/11/11 08:34:10;;;;;;;14.43;12.43;;;;;;;;;;5051131;28;20197;-84
2022/11/11 08:36:37;;;;;;;21.80;14.17;;;;;;;;;;5051363;28;20675;-81
2022/11/11 08:39:03;;;;;;;14.40;12.90;;;;;;;;;;5051329;28;20212;-82
2022/11/11 08:41:30;;;;;;;14.57;12.67;;;;;;;;;;5051482;28;20233;-82
2022/11/11 08:43:59;;;;;;;14.60;13.13;;;;;;;;;;5051293;28;20209;-84
2022/11/11 08:46:26;;;;;;;15.93;13.20;;;;;;;;;;5050849;28;20343;-82
2022/11/11 08:48:53;;;;;;;19.67;14.13;;;;;;;;;;5051160;28;20202;-82
2022/11/11 08:51:20;;;;;;;15.67;13.23;;;;;;;;;;5051082;28;20593;-82
2022/11/11 08:53:47;;;;;;;13.83;11.97;;;;;;;;;;5050929;28;20570;-83
2022/11/11 08:56:14;;;;;;;13.57;12.17;;;;;;;;;;5050827;28;20274;-81
2022/11/11 08:58:40;;;;;;;13.53;12.17;;;;;;;;;;5051292;28;20319;-82
2022/11/11 09:01:12;;;;;;;14.70;10.77;;;;;;;;;;5051051;28;20233;-82
2022/11/11 09:03:42;;;;;;;13.13;11.30;;;;;;;;;;5051170;28;20289;-82
2022/11/11 09:06:10;;;;;;;13.07;10.77;;;;;;;;;;5050947;28;20262;-82
2022/11/11 09:08:37;;;;;;;13.13;11.70;;;;;;;;;;5050621;28;20770;-81
2022/11/11 09:11:04;;;;;;;14.73;11.50;;;;;;;;;;5050463;28;20201;-82
2022/11/11 09:13:31;;;;;;;13.63;10.27;;;;;;;;;;5051018;28;20201;-81
2022/11/11 09:15:58;;;;;;;12.40;10.03;;;;;;;;;;5050429;28;20201;-85
2022/11/11 09:18:27;;;;;;;12.57;10.50;;;;;;;;;;5050682;28;20263;-84
2022/11/11 09:20:53;;;;;;;12.27;9.97;;;;;;;;;;5050383;28;20233;-84
2022/11/11 09:23:20;;;;;;;15.37;10.77;;;;;;;;;;5050252;28;20598;-84
2022/11/11 09:25:47;;;;;;;11.70;10.50;;;;;;;;;;5050441;28;20585;-83
2022/11/11 09:28:14;;;;;;;14.00;11.47;;;;;;;;;;5050456;28;20209;-81
2022/11/11 09:30:40;;;;;;;14.57;9.50;;;;;;;;;;5050710;28;20209;-82
2022/11/11 09:33:08;;;;;;;8.40;7.47;;;;;;;;;;5050725;28;20270;-82
2022/11/11 09:35:36;;;;;;;12.03;9.60;;;;;;;;;;5049982;28;20205;-81
2022/11/11 09:38:03;;;;;;;11.27;9.57;;;;;;;;;;5050460;28;20202;-81
2022/11/11 09:40:39;;;;;;;10.13;9.03;;;;;;;;;;5050434;28;20228;-82
2022/11/11 09:43:12;;;;;;;15.80;9.27;;;;;;;;;;5050394;28;20209;-81
2022/11/11 09:45:49;;;;;;;8.97;7.40;;;;;;;;;;5050186;28;20228;-81
2022/11/11 09:48:34;;;;;;;9.97;8.80;;;;;;;;;;5050560;28;20216;-82
2022/11/11 09:51:04;;;;;;;8.80;7.40;;;;;;;;;;5038296;28;20210;-82
2022/11/11 09:53:34;;;;;;;10.67;7.40;;;;;;;;;;5050333;28;20209;-81
2022/11/11 09:56:07;;;;;;;7.33;6.63;;;;;;;;;;5050026;28;20201;-82
2022/11/11 09:58:38;;;;;;;10.67;8.83;;;;;;;;;;5049801;28;20225;-82
2022/11/11 10:01:09;;;;;;;8.57;7.53;;;;;;;;;;5050379;28;20250;-82
2022/11/11 10:03:39;;;;;;;9.13;7.80;;;;;;;;;;5050497;28;20209;-81
2022/11/11 10:06:13;;;;;;;9.03;7.27;;;;;;;;;;5036172;28;20213;-81
2022/11/11 10:08:44;;;;;;;7.60;6.73;;;;;;;;;;5050105;28;20205;-81
2022/11/11 10:11:16;;;;;;;9.23;7.37;;;;;;;;;;5036104;28;20701;-80
2022/11/11 10:13:43;;;;;;;8.40;7.53;;;;;;;;;;5050101;28;20205;-81
2022/11/11 10:16:16;;;;;;;9.63;7.37;;;;;;;;;;5049634;28;20277;-82
2022/11/11 10:18:57;;;;;;;8.73;7.50;;;;;;;;;;5050218;28;20223;-82
2022/11/11 10:21:33;;;;;;;8.23;6.37;;;;;;;;;;5049740;28;20225;-85
2022/11/11 10:24:01;;;;;;;7.27;6.40;;;;;;;;;;5050085;28;20231;-83
2022/11/11 10:26:34;;;;;;;8.40;6.03;;;;;;;;;;5049793;28;20197;-84
2022/11/11 10:29:02;;;;;;;8.80;7.33;;;;;;;;;;5050111;28;20216;-84
2022/11/11 10:31:29;;;;;;;7.30;6.07;;;;;;;;;;5049717;28;20676;-81
2022/11/11 10:33:59;;;;;;;6.80;6.10;;;;;;;;;;5050614;28;20214;-81
2022/11/11 10:36:28;;;;;;;8.87;7.20;;;;;;;;;;5053894;28;20206;-82
2022/11/11 10:38:58;;;;;;;6.90;6.20;;;;;;;;;;5053555;28;20588;-81
2022/11/11 10:41:32;;;;;;;7.80;7.00;;;;;;;;;;5053601;28;20230;-82
2022/11/11 10:43:58;;;;;;;8.60;7.40;;;;;;;;;;5054003;28;20206;-81
2022/11/11 10:46:29;;;;;;;7.57;6.77;;;;;;;;;;5053057;28;20210;-82
2022/11/11 10:48:59;;;;;;;8.67;6.33;;;;;;;;;;5053288;28;20198;-82
2022/11/11 10:51:30;;;;;;;6.83;5.83;;;;;;;;;;5053377;28;20212;-81
2022/11/11 10:54:03;;;;;;;6.80;5.67;;;;;;;;;;5053243;28;20197;-82
2022/11/11 10:56:35;;;;;;;4.17;3.70;;;;;;;;;;5053303;28;20216;-81
2022/11/11 10:59:07;;;;;;;4.77;4.37;;;;;;;;;;5053155;28;20242;-84
2022/11/11 11:01:37;;;;;;;6.10;3.67;;;;;;;;;;5053306;28;20226;-81
2022/11/11 11:04:06;;;;;;;4.83;4.00;;;;;;;;;;5053351;28;20201;-82
2022/11/11 11:06:36;;;;;;;5.50;3.80;;;;;;;;;;5053076;28;20205;-82
2022/11/11 11:09:11;;;;;;;6.80;3.77;;;;;;;;;;5053118;28;20287;-82
2022/11/11 11:11:41;;;;;;;6.97;3.50;;;;;;;;;;5053454;28;20204;-82
2022/11/11 11:14:15;;;;;;;8.37;3.80;;;;;;;;;;5052981;28;20680;-82
2022/11/11 11:16:47;;;;;;;20.40;6.70;;;;;;;;;;5053135;28;20571;-82
2022/11/11 11:19:15;;;;;;;18.07;5.93;;;;;;;;;;5052795;28;20289;-83
2022/11/11 11:21:52;;;;;;;10.00;4.87;;;;;;;;;;5052384;28;20659;-83
2022/11/11 11:24:24;;;;;;;4.47;2.87;;;;;;;;;;5053076;28;20253;-82
2022/11/11 11:26:53;;;;;;;1.90;1.80;;;;;;;;;;5053265;28;20194;-82
2022/11/11 11:29:31;;;;;;;4.40;2.20;;;;;;;;;;5052868;28;20218;-82
2022/11/11 11:32:12;;;;;;;3.67;2.50;;;;;;;;;;5052472;28;20202;-82
2022/11/11 11:34:47;;;;;;;4.87;2.87;;;;;;;;;;5052653;28;20198;-82
2022/11/11 11:37:16;;;;;;;4.43;3.57;;;;;;;;;;5052889;28;20205;-82
2022/11/11 11:39:46;;;;;;;3.33;3.03;;;;;;;;;;5052525;28;20201;-82
2022/11/11 11:42:33;;;;;;;4.10;3.47;;;;;;;;;;5052409;28;20229;-82
2022/11/11 11:45:31;;;;;;;7.10;4.80;;;;;;;;;;5052536;28;20193;-81
2022/11/11 11:48:07;;;;;;;5.57;3.80;;;;;;;;;;5052115;28;20208;-81
2022/11/11 11:50:42;;;;;;;3.20;2.90;;;;;;;;;;5052186;28;20197;-81
2022/11/11 11:53:36;;;;;;;3.07;2.77;;;;;;;;;;5051792;28;20614;-82
2022/11/11 11:56:10;;;;;;;3.37;2.80;;;;;;;;;;5050336;28;20233;-82
2022/11/11 11:58:42;;;;;;;3.10;2.47;;;;;;;;;;5052182;28;20749;-82
2022/11/11 12:01:11;;;;;;;2.70;2.50;;;;;;;;;;5052096;28;20209;-82
2022/11/11 12:04:01;;;;;;;2.90;2.70;;;;;;;;;;5051952;28;20225;-82
2022/11/11 12:06:36;;;;;;;2.37;2.17;;;;;;;;;;5052279;28;20202;-82
2022/11/11 12:09:13;;;;;;;3.23;2.90;;;;;;;;;;5052064;28;20214;-82
2022/11/11 12:11:44;;;;;;;3.00;2.60;;;;;;;;;;5052086;28;20220;-82
2022/11/11 12:14:34;;;;;;;5.23;3.23;;;;;;;;;;5051932;28;20840;-82
2022/11/11 12:17:02;;;;;;;4.10;3.20;;;;;;;;;;5052096;28;20263;-81
2022/11/11 12:19:55;;;;;;;9.40;5.60;;;;;;;;;;5051582;28;20231;-82
2022/11/11 12:22:33;;;;;;;7.13;4.73;;;;;;;;;;5042030;28;20287;-83
2022/11/11 12:25:11;;;;;;;3.87;3.17;;;;;;;;;;5051815;28;20623;-82
2022/11/11 12:27:44;;;;;;;3.23;2.90;;;;;;;;;;5051587;28;20673;-82
2022/11/11 12:30:15;;;;;;;2.47;2.27;;;;;;;;;;5051674;28;20204;-83
2022/11/11 12:33:06;;;;;;;2.10;2.00;;;;;;;;;;5051574;28;20261;-82
2022/11/11 12:35:51;;;;;;;2.73;2.53;;;;;;;;;;5049221;28;20206;-82
2022/11/11 12:38:37;;;;;;;1.93;1.80;;;;;;;;;;5051720;28;20193;-81
2022/11/11 12:41:12;;;;;;;3.17;2.40;;;;;;;;;;5051395;28;20201;-82
2022/11/11 12:43:47;;;;;;;2.10;2.00;;;;;;;;;;5051572;28;20225;-82
2022/11/11 12:46:20;;;;;;;2.37;2.17;;;;;;;;;;5051420;28;20213;-82
2022/11/11 12:48:57;;;;;;;2.57;2.37;;;;;;;;;;5051295;28;20593;-82
2022/11/11 12:51:37;;;;;;;4.00;2.47;;;;;;;;;;5050386;28;20209;-82
2022/11/11 12:54:13;;;;;;;2.23;2.13;;;;;;;;;;5051374;28;20220;-83
2022/11/11 12:56:46;;;;;;;2.53;2.30;;;;;;;;;;5045560;28;20212;-82
2022/11/11 12:59:20;;;;;;;2.47;2.30;;;;;;;;;;5051273;28;20206;-83
2022/11/11 13:01:57;;;;;;;2.67;2.47;;;;;;;;;;5050661;28;20210;-82
2022/11/11 13:04:41;;;;;;;2.50;2.30;;;;;;;;;;5037350;28;20213;-82
2022/11/11 13:07:43;;;;;;;6.23;5.43;;;;;;;;;;5050922;28;20205;-82
2022/11/11 13:10:19;;;;;;;4.83;4.20;;;;;;;;;;5044667;28;20202;-82
2022/11/11 13:12:54;;;;;;;3.40;3.13;;;;;;;;;;5049843;28;20190;-82
2022/11/11 13:15:23;;;;;;;4.83;4.37;;;;;;;;;;5050961;28;20214;-82
2022/11/11 13:17:49;;;;;;;3.60;3.30;;;;;;;;;;5050455;28;20213;-82
2022/11/11 13:20:22;;;;;;;3.30;3.00;;;;;;;;;;5050685;28;20217;-82
2022/11/11 13:22:49;;;;;;;3.30;3.00;;;;;;;;;;5050338;28;20332;-83
2022/11/11 13:25:19;;;;;;;8.50;6.30;;;;;;;;;;5050372;28;20287;-82
2022/11/11 13:27:50;;;;;;;6.23;5.17;;;;;;;;;;5050670;28;20210;-82
2022/11/11 13:30:44;;;;;;;9.33;8.23;;;;;;;;;;5050821;28;20213;-83
2022/11/11 13:33:14;;;;;;;4.43;3.63;;;;;;;;;;5049010;28;20202;-83
2022/11/11 13:35:44;;;;;;;4.53;3.60;;;;;;;;;;5050696;28;20213;-83
2022/11/11 13:38:22;;;;;;;5.30;4.80;;;;;;;;;;5050873;28;20202;-82
2022/11/11 13:40:51;;;;;;;2.47;2.27;;;;;;;;;;5050598;28;20244;-81
2022/11/11 13:43:22;;;;;;;3.70;2.83;;;;;;;;;;5050019;28;20712;-83
2022/11/11 13:45:53;;;;;;;2.20;2.00;;;;;;;;;;5050506;28;20268;-83
2022/11/11 13:48:26;;;;;;;1.80;1.70;;;;;;;;;;5050389;28;20204;-82
2022/11/11 13:50:52;;;;;;;29.07;13.37;;;;;;;;;;5050977;28;20202;-82
2022/11/11 13:53:27;;;;;;;3.23;2.93;;;;;;;;;;5050600;28;20205;-83
2022/11/11 13:56:02;;;;;;;2.60;2.40;;;;;;;;;;5050109;28;20734;-84
2022/11/11 13:58:33;;;;;;;11.37;2.63;;;;;;;;;;5050666;28;20209;-83
2022/11/11 14:01:01;;;;;;;11.63;3.10;;;;;;;;;;5036673;28;20212;-84
2022/11/11 14:03:30;;;;;;;4.80;2.50;;;;;;;;;;5050469;28;20283;-83
2022/11/11 14:06:36;;;;;;;2.30;2.10;;;;;;;;;;5050203;28;20665;-85
2022/11/11 14:09:04;;;;;;;3.40;3.10;;;;;;;;;;5051611;28;20275;-83
2022/11/11 14:11:32;;;;;;;5.23;3.40;;;;;;;;;;5054564;28;20198;-83
2022/11/11 14:14:39;;;;;;;6.13;4.93;;;;;;;;;;5054159;28;20205;-84
2022/11/11 14:17:14;;;;;;;3.03;2.83;;;;;;;;;;5054264;28;20228;-83
2022/11/11 14:19:41;;;;;;;6.13;2.40;;;;;;;;;;5054253;28;20288;-83
2022/11/11 14:22:29;;;;;;;3.20;2.90;;;;;;;;;;5054312;28;20597;-83
2022/11/11 14:25:10;;;;;;;2.87;2.63;;;;;;;;;;5054066;28;20210;-84
2022/11/11 14:27:37;;;;;;;3.50;3.20;;;;;;;;;;5053881;28;20209;-83
2022/11/11 14:30:04;;;;;;;2.80;2.50;;;;;;;;;;5053846;28;20680;-83
2022/11/11 14:32:48;;;;;;;2.73;2.53;;;;;;;;;;5054294;28;20221;-83
2022/11/11 14:35:33;;;;;;;2.13;2.03;;;;;;;;;;5053840;28;20212;-83
2022/11/11 14:38:23;;;;;;;2.37;2.17;;;;;;;;;;5054152;28;20540;-82
2022/11/11 14:40:50;;;;;;;4.13;2.30;;;;;;;;;;5054026;28;20205;-83
2022/11/11 14:43:38;;;;;;;3.60;3.27;;;;;;;;;;5053534;28;20226;-82
2022/11/11 14:46:09;;;;;;;3.60;3.30;;;;;;;;;;5053321;28;20692;-83
2022/11/11 14:49:00;;;;;;;4.03;3.70;;;;;;;;;;5053460;28;20209;-83
2022/11/11 14:51:40;;;;;;;3.37;3.07;;;;;;;;;;5053775;28;20210;-83
2022/11/11 14:54:17;;;;;;;4.67;2.20;;;;;;;;;;5053489;28;20259;-82
2022/11/11 14:56:44;;;;;;;2.30;2.10;;;;;;;;;;5053880;28;20677;-83
2022/11/11 14:59:13;;;;;;;2.13;1.80;;;;;;;;;;5053430;28;20665;-83
2022/11/11 15:01:40;;;;;;;2.47;2.27;;;;;;;;;;5053314;28;20256;-83
2022/11/11 15:04:09;;;;;;;2.00;1.90;;;;;;;;;;5053257;28;20226;-83
2022/11/11 15:06:40;;;;;;;2.47;2.17;;;;;;;;;;5052449;28;20202;-83
2022/11/11 15:09:14;;;;;;;3.17;2.80;;;;;;;;;;5050828;28;20268;-84
2022/11/11 15:11:51;;;;;;;3.20;2.90;;;;;;;;;;5051948;28;20558;-83
2022/11/11 15:14:28;;;;;;;2.20;2.03;;;;;;;;;;5051840;28;20224;-84
2022/11/11 15:17:04;;;;;;;3.10;2.87;;;;;;;;;;5052204;28;20216;-83
2022/11/11 15:19:42;;;;;;;2.30;2.10;;;;;;;;;;5048846;28;20209;-83
2022/11/11 15:22:27;;;;;;;3.07;2.80;;;;;;;;;;5044762;28;20202;-84
2022/11/11 15:24:58;;;;;;;3.30;2.97;;;;;;;;;;5045401;28;20225;-82
2022/11/11 15:27:32;;;;;;;2.97;2.77;;;;;;;;;;5052950;28;20205;-83
2022/11/11 15:30:04;;;;;;;3.60;3.30;;;;;;;;;;5052736;28;20216;-83
2022/11/11 15:32:44;;;;;;;1.83;1.73;;;;;;;;;;5052889;28;20202;-81
2022/11/11 15:35:27;;;;;;;2.40;2.20;;;;;;;;;;5052782;28;20206;-83
2022/11/11 15:37:57;;;;;;;2.00;1.90;;;;;;;;;;5051720;28;20688;-83
2022/11/11 15:40:25;;;;;;;1.87;1.77;;;;;;;;;;5051090;28;20197;-83
2022/11/11 15:42:53;;;;;;;3.63;3.33;;;;;;;;;;5052481;28;20221;-83
2022/11/11 15:45:25;;;;;;;2.97;2.67;;;;;;;;;;5052628;28;20194;-83
2022/11/11 15:47:54;;;;;;;1.93;1.83;;;;;;;;;;5052516;28;20202;-82
2022/11/11 15:50:33;;;;;;;4.10;3.33;;;;;;;;;;5051023;28;20221;-82
2022/11/11 15:53:01;;;;;;;2.83;2.47;;;;;;;;;;5052995;28;20201;-83
2022/11/11 15:55:30;;;;;;;3.17;2.87;;;;;;;;;;5051829;28;20263;-83
2022/11/11 15:58:08;;;;;;;1.90;1.80;;;;;;;;;;5052766;28;20205;-82
2022/11/11 16:00:36;;;;;;;6.33;3.20;;;;;;;;;;5052040;28;20241;-83
2022/11/11 16:03:04;;;;;;;2.90;2.70;;;;;;;;;;5052479;28;20300;-83
2022/11/11 16:05:33;;;;;;;2.20;2.00;;;;;;;;;;5050929;28;20206;-82
2022/11/11 16:08:04;;;;;;;2.27;2.17;;;;;;;;;;5052249;28;20595;-83